createdAt,value
2023-04-02T00:03:08.478Z,2.42
2023-04-02T00:05:51.990Z,2.40
2023-04-02T00:08:23.385Z,2.22
2023-04-02T00:11:01.548Z,1.35
2023-04-02T00:13:36.331Z,1.38
2023-04-02T00:16:06.978Z,1.40
2023-04-02T00:18:35.876Z,2.25
2023-04-02T00:21:16.333Z,1.48
2023-04-02T00:23:44.240Z,0.70
2023-04-02T00:26:36.651Z,0.20
2023-04-02T00:29:07.201Z,0.20
2023-04-02T00:31:37.691Z,0.47
2023-04-02T00:34:07.215Z,1.23
2023-04-02T00:36:35.126Z,1.50
2023-04-02T00:39:04.771Z,0.45
2023-04-02T00:41:36.002Z,1.48
2023-04-02T00:44:03.470Z,0.90
2023-04-02T00:46:49.428Z,0.55
2023-04-02T00:49:41.045Z,0.20
2023-04-02T00:52:16.464Z,3.65
2023-04-02T00:55:03.580Z,1.48
2023-04-02T00:57:31.004Z,0.20
2023-04-02T01:00:20.097Z,0.57
2023-04-02T01:03:28.682Z,0.22
2023-04-02T01:06:11.345Z,1.57
2023-04-02T01:09:02.296Z,0.90
2023-04-02T01:11:53.371Z,1.15
2023-04-02T01:14:45.384Z,0.28
2023-04-02T01:17:30.598Z,0.45
2023-04-02T01:20:47.838Z,0.50
2023-04-02T01:23:27.713Z,1.70
2023-04-02T01:26:14.908Z,0.55
2023-04-02T01:29:13.872Z,0.40
2023-04-02T01:31:41.780Z,0.52
2023-04-02T01:34:12.187Z,1.92
2023-04-02T01:37:00.902Z,0.10
2023-04-02T01:39:30.407Z,0.32
2023-04-02T01:42:13.198Z,0.50
2023-04-02T01:44:44.285Z,0.45
2023-04-02T01:47:14.138Z,1.48
2023-04-02T01:49:43.258Z,0.70
2023-04-02T01:52:16.100Z,1.85
2023-04-02T01:54:43.407Z,0.80
2023-04-02T01:59:37.481Z,1.55
2023-04-02T02:02:13.459Z,0.20
2023-04-02T02:04:41.571Z,2.25
2023-04-02T02:07:16.306Z,0.75
2023-04-02T02:09:48.122Z,0.70
2023-04-02T02:12:16.047Z,1.83
2023-04-02T02:14:48.794Z,1.40
2023-04-02T02:17:27.473Z,1.15
2023-04-02T02:19:58.053Z,0.73
2023-04-02T02:22:37.051Z,1.05
2023-04-02T02:25:07.380Z,2.22
2023-04-02T02:27:46.711Z,0.20
2023-04-02T02:30:26.040Z,2.15
2023-04-02T02:33:03.939Z,0.63
2023-04-02T02:35:33.900Z,1.75
2023-04-02T02:38:19.852Z,0.43
2023-04-02T02:40:50.390Z,0.20
2023-04-02T02:43:18.499Z,0.70
2023-04-02T02:45:47.685Z,2.33
2023-04-02T02:48:19.288Z,4.03
2023-04-02T02:50:46.460Z,4.93
2023-04-02T02:53:21.370Z,1.63
2023-04-02T02:55:52.424Z,1.73
2023-04-02T02:58:31.416Z,1.58
2023-04-02T03:01:21.663Z,2.55
2023-04-02T03:03:54.560Z,4.43
2023-04-02T03:06:22.734Z,2.35
2023-04-02T03:09:15.862Z,0.80
2023-04-02T03:12:21.565Z,3.13
2023-04-02T03:15:22.974Z,0.70
2023-04-02T03:18:08.485Z,2.72
2023-04-02T03:20:40.887Z,3.35
2023-04-02T03:23:48.834Z,4.32
2023-04-02T03:26:26.549Z,0.47
2023-04-02T03:29:07.541Z,0.60
2023-04-02T03:31:46.771Z,0.77
2023-04-02T03:34:35.293Z,1.13
2023-04-02T03:37:18.483Z,0.38
2023-04-02T03:39:52.170Z,0.98
2023-04-02T03:42:27.112Z,1.17
2023-04-02T03:45:09.931Z,0.40
2023-04-02T03:48:00.800Z,4.70
2023-04-02T03:50:34.594Z,1.08
2023-04-02T03:53:03.207Z,0.40
2023-04-02T03:55:35.676Z,1.13
2023-04-02T03:58:14.217Z,5.10
2023-04-02T04:00:51.879Z,1.20
2023-04-02T04:03:32.363Z,1.45
2023-04-02T04:06:05.676Z,1.75
2023-04-02T04:08:51.959Z,1.65
2023-04-02T04:11:27.126Z,3.92
2023-04-02T04:14:20.111Z,3.20
2023-04-02T04:16:58.770Z,0.98
2023-04-02T04:19:39.575Z,4.50
2023-04-02T04:22:15.877Z,3.22
2023-04-02T04:24:45.810Z,3.67
2023-04-02T04:27:48.550Z,1.77
2023-04-02T04:30:22.866Z,1.90
2023-04-02T04:33:16.903Z,3.47
2023-04-02T04:35:49.321Z,2.53
2023-04-02T04:38:27.882Z,0.68
2023-04-02T04:41:01.705Z,0.43
2023-04-02T04:43:43.747Z,3.08
2023-04-02T04:46:29.440Z,0.80
2023-04-02T04:49:48.210Z,2.63
2023-04-02T04:52:22.280Z,2.60
2023-04-02T04:54:49.279Z,1.45
2023-04-02T04:57:36.928Z,0.88
2023-04-02T05:00:12.957Z,4.80
2023-04-02T05:02:52.555Z,4.70
2023-04-02T05:05:25.175Z,4.25
2023-04-02T05:08:00.099Z,4.28
2023-04-02T05:10:39.306Z,0.90
2023-04-02T05:13:31.362Z,3.15
2023-04-02T05:16:29.040Z,1.70
2023-04-02T05:19:10.941Z,0.82
2023-04-02T05:21:47.551Z,4.15
2023-04-02T05:24:37.626Z,1.48
2023-04-02T05:27:17.859Z,2.45
2023-04-02T05:29:50.862Z,2.13
2023-04-02T05:32:23.574Z,2.90
2023-04-02T05:34:54.789Z,2.15
2023-04-02T05:37:26.700Z,1.95
2023-04-02T05:39:56.992Z,4.10
2023-04-02T05:42:30.899Z,4.47
2023-04-02T05:45:07.900Z,7.40
2023-04-02T05:47:40.952Z,5.70
2023-04-02T05:50:17.027Z,4.07
2023-04-02T05:52:53.539Z,3.28
2023-04-02T05:55:33.062Z,5.85
2023-04-02T05:58:33.978Z,3.92
2023-04-02T06:01:23.675Z,3.92
2023-04-02T06:03:59.464Z,7.32
2023-04-02T06:06:50.514Z,6.00
2023-04-02T06:09:27.647Z,5.97
2023-04-02T06:12:14.631Z,2.15
2023-04-02T06:14:42.274Z,2.85
2023-04-02T06:17:14.525Z,2.25
2023-04-02T06:19:41.418Z,1.60
2023-04-02T06:22:32.305Z,1.95
2023-04-02T06:25:05.233Z,4.45
2023-04-02T06:27:40.000Z,2.83
2023-04-02T06:30:18.139Z,6.63
2023-04-02T06:32:47.779Z,4.75
2023-04-02T06:35:17.245Z,3.67
2023-04-02T06:37:49.877Z,4.95
2023-04-02T06:40:45.358Z,2.72
2023-04-02T06:43:41.009Z,2.97
2023-04-02T06:46:56.681Z,6.45
2023-04-02T06:49:43.189Z,2.75
2023-04-02T06:52:23.204Z,3.40
2023-04-02T06:54:50.002Z,5.78
2023-04-02T06:57:17.128Z,5.95
2023-04-02T06:59:46.665Z,4.38
2023-04-02T07:02:31.168Z,2.05
2023-04-02T07:05:04.099Z,1.95
2023-04-02T07:07:32.430Z,2.25
2023-04-02T07:10:02.289Z,1.98
2023-04-02T07:12:29.723Z,4.15
2023-04-02T07:14:56.710Z,2.10
2023-04-02T07:17:24.254Z,2.20
2023-04-02T07:19:51.049Z,1.45
2023-04-02T07:22:20.486Z,1.90
2023-04-02T07:24:51.968Z,1.60
2023-04-02T07:27:18.628Z,4.18
2023-04-02T07:29:45.299Z,2.97
2023-04-02T07:32:13.692Z,2.38
2023-04-02T07:34:41.471Z,4.53
2023-04-02T07:37:12.746Z,8.85
2023-04-02T07:39:40.673Z,2.40
2023-04-02T07:42:08.011Z,2.42
2023-04-02T07:44:34.676Z,4.75
2023-04-02T07:47:01.553Z,4.88
2023-04-02T07:49:28.437Z,4.03
2023-04-02T07:51:55.106Z,9.18
2023-04-02T07:54:21.805Z,3.88
2023-04-02T07:56:48.508Z,4.75
2023-04-02T07:59:15.333Z,2.42
2023-04-02T08:01:42.882Z,1.98
2023-04-02T08:04:18.922Z,1.83
2023-04-02T08:06:46.895Z,2.95
2023-04-02T08:09:14.720Z,2.53
2023-04-02T08:11:42.215Z,2.22
2023-04-02T08:14:09.886Z,3.28
2023-04-02T08:16:48.758Z,6.70
2023-04-02T08:19:16.084Z,3.15
2023-04-02T08:21:42.969Z,6.32
2023-04-02T08:24:09.660Z,3.08
2023-04-02T08:26:36.450Z,2.45
2023-04-02T08:29:03.811Z,3.78
2023-04-02T08:33:57.349Z,3.70
2023-04-02T08:36:34.525Z,2.10
2023-04-02T08:39:01.847Z,2.60
2023-04-02T08:44:09.570Z,1.73
2023-04-02T08:47:01.275Z,4.30
2023-04-02T08:49:35.851Z,2.40
2023-04-02T08:52:02.567Z,3.53
2023-04-02T08:54:32.836Z,2.90
2023-04-02T08:57:41.113Z,4.82
2023-04-02T09:00:36.794Z,2.65
2023-04-02T09:03:19.332Z,2.03
2023-04-02T09:05:47.687Z,4.20
2023-04-02T09:08:20.290Z,1.95
2023-04-02T09:11:24.426Z,3.88
2023-04-02T09:13:56.025Z,1.65
2023-04-02T09:16:50.606Z,0.93
2023-04-02T09:19:23.707Z,3.63
2023-04-02T09:22:05.930Z,1.73
2023-04-02T09:24:32.903Z,1.63
2023-04-02T09:26:59.893Z,2.33
2023-04-02T09:29:40.760Z,2.92
2023-04-02T09:32:39.730Z,3.67
2023-04-02T09:35:34.023Z,4.00
2023-04-02T09:38:20.871Z,1.63
2023-04-02T09:40:54.978Z,1.38
2023-04-02T09:43:27.180Z,3.13
2023-04-02T09:46:24.157Z,3.08
2023-04-02T09:49:01.116Z,1.35
2023-04-02T09:51:34.520Z,1.77
2023-04-02T09:54:04.113Z,1.65
2023-04-02T09:56:33.196Z,2.13
2023-04-02T09:59:05.209Z,2.33
2023-04-02T10:01:36.612Z,1.85
2023-04-02T10:04:05.394Z,2.40
2023-04-02T10:06:34.349Z,1.20
2023-04-02T10:09:22.096Z,0.75
2023-04-02T10:11:50.769Z,0.65
2023-04-02T10:14:28.911Z,1.80
2023-04-02T10:17:01.215Z,2.38
2023-04-02T10:19:35.915Z,1.65
2023-04-02T10:22:12.922Z,1.40
2023-04-02T10:24:40.507Z,2.90
2023-04-02T10:27:22.388Z,1.15
2023-04-02T10:30:24.932Z,0.85
2023-04-02T10:33:06.731Z,2.55
2023-04-02T10:35:52.419Z,1.40
2023-04-02T10:38:31.035Z,1.02
2023-04-02T10:40:59.707Z,1.95
2023-04-02T10:44:06.465Z,0.28
2023-04-02T10:47:10.920Z,0.70
2023-04-02T10:49:50.573Z,2.55
2023-04-02T10:55:58.232Z,1.48
2023-04-02T10:58:28.460Z,0.95
2023-04-02T11:01:17.243Z,1.08
2023-04-02T11:03:49.659Z,1.27
2023-04-02T11:06:49.244Z,1.50
2023-04-02T11:09:24.730Z,2.75
2023-04-02T11:11:56.043Z,2.03
2023-04-02T11:14:29.535Z,1.75
2023-04-02T11:16:59.227Z,0.40
2023-04-02T11:19:31.156Z,0.63
2023-04-02T11:22:01.885Z,1.13
2023-04-02T11:24:36.987Z,1.92
2023-04-02T11:27:08.046Z,2.03
2023-04-02T11:29:41.016Z,1.45
2023-04-02T11:32:34.227Z,0.52
2023-04-02T11:35:07.250Z,2.35
2023-04-02T11:37:44.579Z,1.65
2023-04-02T11:40:11.632Z,1.55
2023-04-02T11:42:46.238Z,1.30
2023-04-02T11:45:23.047Z,0.52
2023-04-02T11:48:15.406Z,3.90
2023-04-02T11:50:46.298Z,1.27
2023-04-02T11:53:13.489Z,1.75
2023-04-02T11:56:05.736Z,0.30
2023-04-02T11:59:08.031Z,1.23
2023-04-02T12:01:59.448Z,2.67
2023-04-02T12:04:52.629Z,0.73
2023-04-02T12:07:34.640Z,0.88
2023-04-02T12:10:23.308Z,1.45
2023-04-02T12:12:50.587Z,0.98
2023-04-02T12:18:02.359Z,3.40
2023-04-02T12:20:31.008Z,0.98
2023-04-02T12:22:58.294Z,0.30
2023-04-02T12:28:11.436Z,3.25
2023-04-02T12:30:38.911Z,2.13
2023-04-02T12:33:33.552Z,4.28
2023-04-02T12:36:02.382Z,2.28
2023-04-02T12:38:33.370Z,3.67
2023-04-02T12:41:03.531Z,1.23
2023-04-02T12:43:33.171Z,3.40
2023-04-02T12:46:05.685Z,0.80
2023-04-02T12:48:34.631Z,1.77
2023-04-02T12:51:02.725Z,0.77
2023-04-02T12:53:36.404Z,1.83
2023-04-02T12:56:04.712Z,0.80
2023-04-02T12:58:42.716Z,2.20
2023-04-02T13:01:24.664Z,0.73
2023-04-02T13:04:07.144Z,0.40
2023-04-02T13:06:35.580Z,1.13
2023-04-02T13:09:05.946Z,1.13
2023-04-02T13:11:41.122Z,0.90
2023-04-02T13:14:18.739Z,1.45
2023-04-02T13:16:46.113Z,1.95
2023-04-02T13:21:45.940Z,0.98
2023-04-02T13:26:51.097Z,0.65
2023-04-02T13:29:25.522Z,0.95
2023-04-02T13:31:55.704Z,1.02
2023-04-02T13:34:22.661Z,1.65
2023-04-02T13:36:49.587Z,1.58
2023-04-02T13:39:16.487Z,2.67
2023-04-02T13:41:45.612Z,1.52
2023-04-02T13:44:33.661Z,8.07
2023-04-02T13:47:01.091Z,7.97
2023-04-02T13:49:28.141Z,3.47
2023-04-02T13:51:58.685Z,1.20
2023-04-02T13:54:46.499Z,1.40
2023-04-02T13:57:13.854Z,3.13
2023-04-02T14:02:20.368Z,0.73
2023-04-02T14:05:00.268Z,1.58
2023-04-02T14:07:41.222Z,0.73
2023-04-02T14:10:38.160Z,0.75
2023-04-02T14:13:32.781Z,2.22
2023-04-02T14:16:30.392Z,2.08
2023-04-02T14:19:06.224Z,3.40
2023-04-02T14:22:08.681Z,0.82
2023-04-02T14:24:39.767Z,2.58
2023-04-02T14:27:24.397Z,0.75
2023-04-02T14:30:01.150Z,1.13
2023-04-02T14:32:48.980Z,0.45
2023-04-02T14:35:37.186Z,1.15
2023-04-02T14:38:06.986Z,2.00
2023-04-02T14:40:49.393Z,0.50
2023-04-02T14:43:27.726Z,1.75
2023-04-02T14:46:01.601Z,1.23
2023-04-02T14:48:37.793Z,2.03
2023-04-02T14:51:34.726Z,1.48
2023-04-02T14:54:30.145Z,4.38
2023-04-02T14:57:06.777Z,1.02
2023-04-02T15:00:05.152Z,0.93
2023-04-02T15:02:51.559Z,2.27
2023-04-02T15:05:22.977Z,0.70
2023-04-02T15:07:58.369Z,0.40
2023-04-02T15:10:38.848Z,1.95
2023-04-02T15:13:12.768Z,2.30
2023-04-02T15:15:52.271Z,1.13
2023-04-02T15:18:18.999Z,4.55
2023-04-02T15:21:04.330Z,0.80
2023-04-02T15:23:36.459Z,1.02
2023-04-02T15:26:13.069Z,0.75
2023-04-02T15:29:02.577Z,1.17
2023-04-02T15:31:29.400Z,2.53
2023-04-02T15:34:06.629Z,1.88
2023-04-02T15:36:48.057Z,0.70
2023-04-02T15:39:41.687Z,1.35
2023-04-02T15:42:20.322Z,2.58
2023-04-02T15:45:02.163Z,3.00
2023-04-02T15:48:04.529Z,7.82
2023-04-02T15:50:49.763Z,4.22
2023-04-02T15:53:34.339Z,3.05
2023-04-02T15:56:30.734Z,3.00
2023-04-02T15:59:15.934Z,1.33
2023-04-02T16:02:10.282Z,5.03
2023-04-02T16:04:57.078Z,1.50
2023-04-02T16:08:01.268Z,3.35
2023-04-02T16:10:42.530Z,2.00
2023-04-02T16:13:19.091Z,0.90
2023-04-02T16:15:58.484Z,2.53
2023-04-02T16:18:40.425Z,3.80
2023-04-02T16:21:07.965Z,0.32
2023-04-02T16:23:39.094Z,0.90
2023-04-02T16:26:14.786Z,1.48
2023-04-02T16:29:20.148Z,4.82
2023-04-02T16:31:50.513Z,2.15
2023-04-02T16:34:28.828Z,2.22
2023-04-02T16:37:20.145Z,2.13
2023-04-02T16:39:59.396Z,1.42
2023-04-02T16:42:54.750Z,1.30
2023-04-02T16:45:21.384Z,11.40
2023-04-02T16:48:01.518Z,1.33
2023-04-02T16:50:55.615Z,0.52
2023-04-02T16:53:31.425Z,1.17
2023-04-02T16:56:04.090Z,1.95
2023-04-02T16:58:44.593Z,0.88
2023-04-02T17:01:25.163Z,1.35
2023-04-02T17:04:04.159Z,3.08
2023-04-02T17:06:43.051Z,2.15
2023-04-02T17:09:27.021Z,2.88
2023-04-02T17:12:04.210Z,5.38
2023-04-02T17:14:40.632Z,4.00
2023-04-02T17:17:12.082Z,3.63
2023-04-02T17:19:40.774Z,2.70
2023-04-02T17:22:18.868Z,4.03
2023-04-02T17:24:56.690Z,6.20
2023-04-02T17:27:28.863Z,2.65
2023-04-02T17:30:04.279Z,3.05
2023-04-02T17:32:33.606Z,2.83
2023-04-02T17:35:17.622Z,3.58
2023-04-02T17:37:52.610Z,2.25
2023-04-02T17:40:59.686Z,5.45
2023-04-02T17:43:53.894Z,1.60
2023-04-02T17:46:51.492Z,3.53
2023-04-02T17:49:27.468Z,2.92
2023-04-02T17:52:29.905Z,3.10
2023-04-02T17:55:37.748Z,2.63
2023-04-02T17:58:05.138Z,3.13
2023-04-02T18:00:49.016Z,3.17
2023-04-02T18:03:29.482Z,5.53
2023-04-02T18:06:08.350Z,5.40
2023-04-02T18:09:06.186Z,5.30
2023-04-02T18:12:00.562Z,7.93
2023-04-02T18:14:46.073Z,6.40
2023-04-02T18:17:27.871Z,4.88
2023-04-02T18:19:58.783Z,2.40
2023-04-02T18:23:03.751Z,1.70
2023-04-02T18:26:07.348Z,1.17
2023-04-02T18:28:44.955Z,0.90
2023-04-02T18:31:47.640Z,0.98
2023-04-02T18:35:00.287Z,1.92
2023-04-02T18:37:36.049Z,1.80
2023-04-02T18:40:30.610Z,1.15
2023-04-02T18:43:21.121Z,0.60
2023-04-02T18:46:05.436Z,3.65
2023-04-02T18:48:52.334Z,1.02
2023-04-02T18:51:22.364Z,4.90
2023-04-02T18:53:54.997Z,9.55
2023-04-02T18:56:24.349Z,21.73
2023-04-02T18:59:14.323Z,14.18
2023-04-02T19:01:45.706Z,4.13
2023-04-02T19:04:18.928Z,1.58
2023-04-02T19:06:52.215Z,2.50
2023-04-02T19:09:27.974Z,3.10
2023-04-02T19:11:54.692Z,4.10
2023-04-02T19:14:23.345Z,5.78
2023-04-02T19:17:02.564Z,6.22
2023-04-02T19:19:57.330Z,6.13
2023-04-02T19:22:33.493Z,3.17
2023-04-02T19:25:11.963Z,2.85
2023-04-02T19:28:13.835Z,4.03
2023-04-02T19:30:54.448Z,2.45
2023-04-02T19:33:42.499Z,1.98
2023-04-02T19:36:35.490Z,3.17
2023-04-02T19:39:23.527Z,0.75
2023-04-02T19:42:11.743Z,1.27
2023-04-02T19:44:43.664Z,1.20
2023-04-02T19:47:11.144Z,1.92
2023-04-02T19:49:37.871Z,1.30
2023-04-02T19:52:04.736Z,0.77
2023-04-02T19:54:31.415Z,0.65
2023-04-02T19:56:58.219Z,0.57
2023-04-02T19:59:24.930Z,1.40
2023-04-02T20:01:51.625Z,1.58
2023-04-02T20:04:18.317Z,1.85
2023-04-02T20:06:45.059Z,2.05
2023-04-02T20:09:11.776Z,1.95
2023-04-02T20:11:39.078Z,2.53
2023-04-02T20:16:33.750Z,2.70
2023-04-02T20:19:00.577Z,2.58
2023-04-02T20:21:27.665Z,4.18
2023-04-02T20:23:54.846Z,4.68
2023-04-02T20:26:22.334Z,5.97
2023-04-02T20:28:49.135Z,8.35
2023-04-02T20:31:18.039Z,7.13
2023-04-02T20:33:45.258Z,6.97
2023-04-02T20:36:14.267Z,6.18
2023-04-02T20:38:41.546Z,7.88
2023-04-02T20:43:36.500Z,5.22
2023-04-02T20:46:05.711Z,5.75
2023-04-02T20:48:33.597Z,6.32
2023-04-02T20:51:01.849Z,3.75
2023-04-02T20:53:29.838Z,5.97
2023-04-02T20:56:07.476Z,7.82
2023-04-02T20:58:36.180Z,7.53
2023-04-02T21:01:18.063Z,9.02
2023-04-02T21:03:44.916Z,8.05
2023-04-02T21:06:19.900Z,6.75
2023-04-02T21:08:47.131Z,9.50
2023-04-02T21:11:14.825Z,6.80
2023-04-02T21:13:43.870Z,5.32
2023-04-02T21:16:21.581Z,5.32
2023-04-02T21:18:52.730Z,5.40
2023-04-02T21:21:20.884Z,4.75
2023-04-02T21:23:48.015Z,3.38
2023-04-02T21:26:17.542Z,7.38
2023-04-02T21:28:45.195Z,5.82
2023-04-02T21:31:15.448Z,7.80
2023-04-02T21:33:45.243Z,7.40
2023-04-02T21:36:18.334Z,6.22
2023-04-02T21:38:47.446Z,6.50
2023-04-02T21:41:27.419Z,11.18
2023-04-02T21:43:55.767Z,9.25
2023-04-02T21:46:25.175Z,8.77
2023-04-02T21:48:53.773Z,7.50
2023-04-02T21:51:29.379Z,8.45
2023-04-02T21:53:56.572Z,8.15
2023-04-02T21:56:29.574Z,7.28
2023-04-02T21:58:57.091Z,5.55
2023-04-02T22:01:27.988Z,5.70
2023-04-02T22:03:56.842Z,6.22
2023-04-02T22:06:26.241Z,7.75
2023-04-02T22:09:06.332Z,7.35
2023-04-02T22:11:36.210Z,10.05
2023-04-02T22:14:03.952Z,8.63
2023-04-02T22:16:32.728Z,7.25
2023-04-02T22:19:01.886Z,8.73
2023-04-02T22:21:30.816Z,7.40
2023-04-02T22:24:03.036Z,8.98
2023-04-02T22:26:31.215Z,10.18
2023-04-02T22:28:58.450Z,11.90
2023-04-02T22:31:27.953Z,8.45
2023-04-02T22:33:56.688Z,10.32
2023-04-02T22:36:24.274Z,9.27
2023-04-02T22:38:51.168Z,10.07
2023-04-02T22:41:27.175Z,9.73
2023-04-02T22:43:55.655Z,11.88
2023-04-02T22:46:23.196Z,13.38
2023-04-02T22:48:50.655Z,12.43
2023-04-02T22:53:45.869Z,13.70
2023-04-02T22:56:14.786Z,13.27
2023-04-02T22:58:41.659Z,13.40
2023-04-02T23:01:33.214Z,15.48
2023-04-02T23:04:00.006Z,12.57
2023-04-02T23:06:27.344Z,13.13
2023-04-02T23:11:24.188Z,13.43
2023-04-02T23:13:53.218Z,14.32
2023-04-02T23:16:21.229Z,13.68
2023-04-02T23:18:49.090Z,13.70
2023-04-02T23:21:17.003Z,12.48
2023-04-02T23:23:44.312Z,16.40
2023-04-02T23:26:19.369Z,15.40
2023-04-02T23:28:46.164Z,15.85
2023-04-02T23:31:15.673Z,13.57
2023-04-02T23:33:43.147Z,14.73
2023-04-02T23:38:37.872Z,15.75
2023-04-02T23:41:04.750Z,14.35
2023-04-02T23:43:31.706Z,15.63
2023-04-02T23:45:58.656Z,15.70
2023-04-02T23:48:25.549Z,15.25
2023-04-02T23:51:18.767Z,14.88
2023-04-02T23:53:45.589Z,17.92
2023-04-02T23:56:12.324Z,15.45
2023-04-02T23:58:39.044Z,19.35
